Palos Verdes Peninsula, California
Current Conditions -  °F | °C
As of 7:47 PM on Saturday 22 Nov 2014 (Local Time) from KTOA Reporting Station
Clear Clear  
Wind Chill: 61°   Ceiling: Unl
Heat Index: 61°   Visibility: 10mi
Dew Point: 54°   Wind: 6mph
Humidity: 77%   Direction: 220°SW
Pressure: 30.03"   Gusts: NA
Location:  33.7772°N, 118.368°W
Report Text: KTOA 230347Z 22005KT 10SM SKC 16/12 A3003 RMK LAST
Loading
Personal Weather Stations






























Interactive Weather Map New forecast layout! Learn more

10-Day Weather Forecast

Advertisements
Track Severe Weather on mobile